Bass Lake, Indiana
Current Conditions -  °F | °C
As of 9:55 PM on Sunday 23 Nov 2014 (Local Time) from KOXI Reporting Station
Overcast Overcast  
Wind Chill: 50°   Ceiling: 1900
Heat Index: 50°   Visibility: 5mi
Dew Point: 49°   Wind: 5mph
Humidity: 95%   Direction: 130°SE
Pressure: 29.15"   Gusts: NA
Location:  41.2954°N, 86.6039°W
Report Text: KOXI 240355Z AUTO 13004KT 5SM SCT005 BKN019 OVC031 10/10 A2915 RMK AO1 T01020095
Loading
Personal Weather Stations






























Interactive Weather Map New forecast layout! Learn more

10-Day Weather Forecast

Advertisements
Track Severe Weather on mobile